sensor_id;sensor_type;location;lat;lon;timestamp;P1;durP1;ratioP1;P2;durP2;ratioP2
46407;SDS011;32110;45.724;21.276;2023-06-14T00:01:32;9.02;;;4.45;;
46407;SDS011;32110;45.724;21.276;2023-06-14T00:03:59;9.10;;;4.65;;
46407;SDS011;32110;45.724;21.276;2023-06-14T00:06:26;9.23;;;4.20;;
46407;SDS011;32110;45.724;21.276;2023-06-14T00:08:52;8.88;;;4.05;;
46407;SDS011;32110;45.724;21.276;2023-06-14T00:11:17;8.18;;;4.57;;
46407;SDS011;32110;45.724;21.276;2023-06-14T00:13:43;7.55;;;4.15;;
46407;SDS011;32110;45.724;21.276;2023-06-14T00:16:08;8.23;;;4.28;;
46407;SDS011;32110;45.724;21.276;2023-06-14T00:18:33;9.70;;;4.38;;
46407;SDS011;32110;45.724;21.276;2023-06-14T00:20:59;10.68;;;4.50;;
46407;SDS011;32110;45.724;21.276;2023-06-14T00:23:24;7.32;;;4.50;;
46407;SDS011;32110;45.724;21.276;2023-06-14T00:25:50;9.07;;;4.68;;
46407;SDS011;32110;45.724;21.276;2023-06-14T00:28:16;8.73;;;5.15;;
46407;SDS011;32110;45.724;21.276;2023-06-14T00:30:41;10.55;;;5.50;;
46407;SDS011;32110;45.724;21.276;2023-06-14T00:33:09;14.23;;;5.47;;
46407;SDS011;32110;45.724;21.276;2023-06-14T00:35:34;13.38;;;5.25;;
46407;SDS011;32110;45.724;21.276;2023-06-14T00:38:00;9.63;;;5.50;;
46407;SDS011;32110;45.724;21.276;2023-06-14T00:40:26;9.55;;;5.25;;
46407;SDS011;32110;45.724;21.276;2023-06-14T00:42:51;9.13;;;5.18;;
46407;SDS011;32110;45.724;21.276;2023-06-14T00:45:17;10.18;;;5.13;;
46407;SDS011;32110;45.724;21.276;2023-06-14T00:47:43;10.68;;;4.68;;
46407;SDS011;32110;45.724;21.276;2023-06-14T00:50:10;10.30;;;4.30;;
46407;SDS011;32110;45.724;21.276;2023-06-14T00:52:36;8.63;;;4.30;;
46407;SDS011;32110;45.724;21.276;2023-06-14T00:55:02;8.13;;;4.20;;
46407;SDS011;32110;45.724;21.276;2023-06-14T00:57:28;9.02;;;4.32;;
46407;SDS011;32110;45.724;21.276;2023-06-14T00:59:54;7.72;;;4.00;;
46407;SDS011;32110;45.724;21.276;2023-06-14T01:02:20;7.55;;;4.28;;
46407;SDS011;32110;45.724;21.276;2023-06-14T01:04:47;7.53;;;4.25;;
46407;SDS011;32110;45.724;21.276;2023-06-14T01:15:22;5.95;;;4.10;;
46407;SDS011;32110;45.724;21.276;2023-06-14T01:17:51;7.53;;;4.07;;
46407;SDS011;32110;45.724;21.276;2023-06-14T01:20:21;7.82;;;3.83;;
46407;SDS011;32110;45.724;21.276;2023-06-14T01:22:51;11.95;;;4.15;;
46407;SDS011;32110;45.724;21.276;2023-06-14T01:25:20;7.43;;;4.13;;
46407;SDS011;32110;45.724;21.276;2023-06-14T01:28:08;7.85;;;3.88;;
46407;SDS011;32110;45.724;21.276;2023-06-14T01:30:36;6.68;;;3.70;;
46407;SDS011;32110;45.724;21.276;2023-06-14T01:33:03;12.93;;;4.22;;
46407;SDS011;32110;45.724;21.276;2023-06-14T01:35:30;8.77;;;4.35;;
46407;SDS011;32110;45.724;21.276;2023-06-14T01:37:56;7.40;;;4.15;;
46407;SDS011;32110;45.724;21.276;2023-06-14T01:40:23;9.45;;;3.92;;
46407;SDS011;32110;45.724;21.276;2023-06-14T01:42:49;9.93;;;4.45;;
46407;SDS011;32110;45.724;21.276;2023-06-14T01:45:15;8.88;;;4.10;;
46407;SDS011;32110;45.724;21.276;2023-06-14T01:47:42;11.32;;;4.43;;
46407;SDS011;32110;45.724;21.276;2023-06-14T01:50:09;7.88;;;4.60;;
46407;SDS011;32110;45.724;21.276;2023-06-14T01:52:36;8.82;;;4.20;;
46407;SDS011;32110;45.724;21.276;2023-06-14T01:55:02;8.15;;;4.43;;
46407;SDS011;32110;45.724;21.276;2023-06-14T01:57:28;13.95;;;4.95;;
46407;SDS011;32110;45.724;21.276;2023-06-14T01:59:53;11.02;;;4.80;;
46407;SDS011;32110;45.724;21.276;2023-06-14T02:02:18;7.60;;;4.70;;
46407;SDS011;32110;45.724;21.276;2023-06-14T02:04:44;7.88;;;4.72;;
46407;SDS011;32110;45.724;21.276;2023-06-14T02:07:11;9.48;;;4.88;;
46407;SDS011;32110;45.724;21.276;2023-06-14T02:09:36;11.50;;;4.47;;
46407;SDS011;32110;45.724;21.276;2023-06-14T02:12:02;18.20;;;5.13;;
46407;SDS011;32110;45.724;21.276;2023-06-14T02:14:27;8.68;;;5.40;;
46407;SDS011;32110;45.724;21.276;2023-06-14T02:16:53;9.95;;;5.05;;
46407;SDS011;32110;45.724;21.276;2023-06-14T02:19:19;9.70;;;5.60;;
46407;SDS011;32110;45.724;21.276;2023-06-14T02:21:45;11.25;;;4.78;;
46407;SDS011;32110;45.724;21.276;2023-06-14T02:24:11;9.82;;;5.00;;
46407;SDS011;32110;45.724;21.276;2023-06-14T02:26:37;10.75;;;4.97;;
46407;SDS011;32110;45.724;21.276;2023-06-14T02:29:07;11.98;;;5.63;;
46407;SDS011;32110;45.724;21.276;2023-06-14T02:31:35;8.60;;;5.50;;
46407;SDS011;32110;45.724;21.276;2023-06-14T02:34:00;9.30;;;4.50;;
46407;SDS011;32110;45.724;21.276;2023-06-14T02:36:26;16.25;;;5.90;;
46407;SDS011;32110;45.724;21.276;2023-06-14T02:38:52;8.82;;;5.20;;
46407;SDS011;32110;45.724;21.276;2023-06-14T02:41:19;7.43;;;4.57;;
46407;SDS011;32110;45.724;21.276;2023-06-14T02:43:44;10.55;;;5.63;;
46407;SDS011;32110;45.724;21.276;2023-06-14T02:46:10;9.90;;;5.32;;
46407;SDS011;32110;45.724;21.276;2023-06-14T02:48:36;8.23;;;5.10;;
46407;SDS011;32110;45.724;21.276;2023-06-14T02:51:01;11.23;;;5.75;;
46407;SDS011;32110;45.724;21.276;2023-06-14T02:53:27;11.70;;;5.38;;
46407;SDS011;32110;45.724;21.276;2023-06-14T02:55:52;11.48;;;5.43;;
46407;SDS011;32110;45.724;21.276;2023-06-14T02:58:17;10.48;;;5.85;;
46407;SDS011;32110;45.724;21.276;2023-06-14T03:00:44;10.50;;;5.63;;
46407;SDS011;32110;45.724;21.276;2023-06-14T03:03:09;15.57;;;5.60;;
46407;SDS011;32110;45.724;21.276;2023-06-14T03:08:11;15.15;;;5.95;;
46407;SDS011;32110;45.724;21.276;2023-06-14T03:10:41;14.25;;;6.05;;
46407;SDS011;32110;45.724;21.276;2023-06-14T03:13:08;12.43;;;6.38;;
46407;SDS011;32110;45.724;21.276;2023-06-14T03:15:35;10.60;;;6.25;;
46407;SDS011;32110;45.724;21.276;2023-06-14T03:18:01;13.57;;;6.10;;
46407;SDS011;32110;45.724;21.276;2023-06-14T03:20:26;10.00;;;6.00;;
46407;SDS011;32110;45.724;21.276;2023-06-14T03:22:54;13.25;;;6.13;;
46407;SDS011;32110;45.724;21.276;2023-06-14T03:25:19;9.90;;;5.97;;
46407;SDS011;32110;45.724;21.276;2023-06-14T03:27:46;11.57;;;5.88;;
46407;SDS011;32110;45.724;21.276;2023-06-14T03:30:12;11.30;;;6.25;;
46407;SDS011;32110;45.724;21.276;2023-06-14T03:32:38;14.27;;;7.45;;
46407;SDS011;32110;45.724;21.276;2023-06-14T03:35:03;12.68;;;6.72;;
46407;SDS011;32110;45.724;21.276;2023-06-14T03:37:29;10.85;;;6.65;;
46407;SDS011;32110;45.724;21.276;2023-06-14T03:39:54;15.32;;;6.45;;
46407;SDS011;32110;45.724;21.276;2023-06-14T03:42:20;10.68;;;6.10;;
46407;SDS011;32110;45.724;21.276;2023-06-14T03:44:45;13.80;;;6.40;;
46407;SDS011;32110;45.724;21.276;2023-06-14T03:47:10;13.45;;;6.82;;
46407;SDS011;32110;45.724;21.276;2023-06-14T03:49:36;14.77;;;6.97;;
46407;SDS011;32110;45.724;21.276;2023-06-14T03:52:01;11.52;;;6.45;;
46407;SDS011;32110;45.724;21.276;2023-06-14T03:54:28;16.52;;;6.88;;
46407;SDS011;32110;45.724;21.276;2023-06-14T03:56:54;14.05;;;6.88;;
46407;SDS011;32110;45.724;21.276;2023-06-14T03:59:21;12.77;;;6.55;;
46407;SDS011;32110;45.724;21.276;2023-06-14T04:01:47;9.07;;;6.03;;
46407;SDS011;32110;45.724;21.276;2023-06-14T04:04:12;13.45;;;6.43;;
46407;SDS011;32110;45.724;21.276;2023-06-14T04:06:38;12.18;;;5.97;;
46407;SDS011;32110;45.724;21.276;2023-06-14T04:09:06;15.18;;;6.88;;
46407;SDS011;32110;45.724;21.276;2023-06-14T04:11:31;13.23;;;5.88;;
46407;SDS011;32110;45.724;21.276;2023-06-14T04:13:57;13.75;;;5.95;;
46407;SDS011;32110;45.724;21.276;2023-06-14T04:16:23;8.93;;;5.25;;
46407;SDS011;32110;45.724;21.276;2023-06-14T04:18:48;14.43;;;5.72;;
46407;SDS011;32110;45.724;21.276;2023-06-14T04:21:16;10.95;;;5.65;;
46407;SDS011;32110;45.724;21.276;2023-06-14T04:23:41;10.02;;;5.82;;
46407;SDS011;32110;45.724;21.276;2023-06-14T04:26:08;13.20;;;6.22;;
46407;SDS011;32110;45.724;21.276;2023-06-14T04:28:35;14.85;;;5.82;;
46407;SDS011;32110;45.724;21.276;2023-06-14T04:31:05;8.90;;;4.93;;
46407;SDS011;32110;45.724;21.276;2023-06-14T04:33:36;9.38;;;5.18;;
46407;SDS011;32110;45.724;21.276;2023-06-14T04:36:08;9.88;;;5.20;;
46407;SDS011;32110;45.724;21.276;2023-06-14T04:38:35;9.48;;;5.30;;
46407;SDS011;32110;45.724;21.276;2023-06-14T04:41:01;10.38;;;5.90;;
46407;SDS011;32110;45.724;21.276;2023-06-14T04:43:26;9.20;;;5.47;;
46407;SDS011;32110;45.724;21.276;2023-06-14T04:45:52;14.38;;;5.63;;
46407;SDS011;32110;45.724;21.276;2023-06-14T04:48:20;13.98;;;5.22;;
46407;SDS011;32110;45.724;21.276;2023-06-14T04:50:46;8.25;;;5.53;;
46407;SDS011;32110;45.724;21.276;2023-06-14T04:53:11;11.65;;;5.60;;
46407;SDS011;32110;45.724;21.276;2023-06-14T04:55:37;11.82;;;5.57;;
46407;SDS011;32110;45.724;21.276;2023-06-14T04:58:03;11.77;;;5.32;;
46407;SDS011;32110;45.724;21.276;2023-06-14T05:00:28;10.68;;;4.72;;
46407;SDS011;32110;45.724;21.276;2023-06-14T05:02:55;13.60;;;5.30;;
46407;SDS011;32110;45.724;21.276;2023-06-14T05:05:22;11.38;;;5.22;;
46407;SDS011;32110;45.724;21.276;2023-06-14T05:07:47;8.75;;;4.70;;
46407;SDS011;32110;45.724;21.276;2023-06-14T05:10:12;10.88;;;4.90;;
46407;SDS011;32110;45.724;21.276;2023-06-14T05:12:38;12.18;;;4.57;;
46407;SDS011;32110;45.724;21.276;2023-06-14T05:15:03;17.15;;;4.78;;
46407;SDS011;32110;45.724;21.276;2023-06-14T05:17:29;10.02;;;4.85;;
46407;SDS011;32110;45.724;21.276;2023-06-14T05:19:55;9.20;;;5.20;;
46407;SDS011;32110;45.724;21.276;2023-06-14T05:22:23;10.43;;;4.60;;
46407;SDS011;32110;45.724;21.276;2023-06-14T05:24:48;6.72;;;4.45;;
46407;SDS011;32110;45.724;21.276;2023-06-14T05:27:13;11.20;;;4.85;;
46407;SDS011;32110;45.724;21.276;2023-06-14T05:29:39;9.98;;;5.53;;
46407;SDS011;32110;45.724;21.276;2023-06-14T05:32:05;10.07;;;4.80;;
46407;SDS011;32110;45.724;21.276;2023-06-14T05:34:31;10.13;;;4.95;;
46407;SDS011;32110;45.724;21.276;2023-06-14T05:36:56;10.50;;;4.68;;
46407;SDS011;32110;45.724;21.276;2023-06-14T05:39:22;12.80;;;4.97;;
46407;SDS011;32110;45.724;21.276;2023-06-14T05:41:49;9.43;;;4.60;;
46407;SDS011;32110;45.724;21.276;2023-06-14T05:44:14;17.23;;;5.17;;
46407;SDS011;32110;45.724;21.276;2023-06-14T05:46:39;15.63;;;4.90;;
46407;SDS011;32110;45.724;21.276;2023-06-14T05:49:05;10.95;;;4.63;;
46407;SDS011;32110;45.724;21.276;2023-06-14T05:51:30;12.25;;;4.25;;
46407;SDS011;32110;45.724;21.276;2023-06-14T05:53:55;12.73;;;4.47;;
46407;SDS011;32110;45.724;21.276;2023-06-14T05:56:22;11.32;;;4.68;;
46407;SDS011;32110;45.724;21.276;2023-06-14T05:58:48;6.72;;;4.60;;
46407;SDS011;32110;45.724;21.276;2023-06-14T06:01:13;7.93;;;4.50;;
46407;SDS011;32110;45.724;21.276;2023-06-14T06:03:39;10.70;;;4.75;;
46407;SDS011;32110;45.724;21.276;2023-06-14T06:06:04;9.18;;;4.68;;
46407;SDS011;32110;45.724;21.276;2023-06-14T06:08:30;7.18;;;4.38;;
46407;SDS011;32110;45.724;21.276;2023-06-14T06:10:56;8.75;;;3.85;;
46407;SDS011;32110;45.724;21.276;2023-06-14T06:13:21;8.82;;;4.10;;
46407;SDS011;32110;45.724;21.276;2023-06-14T06:15:47;10.50;;;4.13;;
46407;SDS011;32110;45.724;21.276;2023-06-14T06:18:12;11.18;;;4.47;;
46407;SDS011;32110;45.724;21.276;2023-06-14T06:20:37;13.23;;;4.37;;
46407;SDS011;32110;45.724;21.276;2023-06-14T06:23:03;7.97;;;4.07;;
46407;SDS011;32110;45.724;21.276;2023-06-14T06:25:28;9.18;;;3.78;;
46407;SDS011;32110;45.724;21.276;2023-06-14T06:27:54;10.43;;;4.38;;
46407;SDS011;32110;45.724;21.276;2023-06-14T06:30:20;8.48;;;4.13;;
46407;SDS011;32110;45.724;21.276;2023-06-14T06:32:46;8.68;;;4.30;;
46407;SDS011;32110;45.724;21.276;2023-06-14T06:35:12;9.23;;;4.25;;
46407;SDS011;32110;45.724;21.276;2023-06-14T06:37:38;10.48;;;3.78;;
46407;SDS011;32110;45.724;21.276;2023-06-14T06:40:03;7.32;;;3.65;;
46407;SDS011;32110;45.724;21.276;2023-06-14T06:42:30;6.50;;;3.80;;
46407;SDS011;32110;45.724;21.276;2023-06-14T06:44:56;11.30;;;3.53;;
46407;SDS011;32110;45.724;21.276;2023-06-14T06:47:24;8.07;;;3.72;;
46407;SDS011;32110;45.724;21.276;2023-06-14T06:49:50;7.47;;;3.70;;
46407;SDS011;32110;45.724;21.276;2023-06-14T06:52:15;6.90;;;3.70;;
46407;SDS011;32110;45.724;21.276;2023-06-14T06:54:40;6.05;;;3.83;;
46407;SDS011;32110;45.724;21.276;2023-06-14T06:57:06;5.57;;;3.05;;
46407;SDS011;32110;45.724;21.276;2023-06-14T06:59:32;9.05;;;3.30;;
46407;SDS011;32110;45.724;21.276;2023-06-14T07:01:58;9.40;;;3.22;;
46407;SDS011;32110;45.724;21.276;2023-06-14T07:04:23;4.93;;;2.90;;
46407;SDS011;32110;45.724;21.276;2023-06-14T07:06:48;6.03;;;2.97;;
46407;SDS011;32110;45.724;21.276;2023-06-14T07:09:14;6.30;;;2.97;;
46407;SDS011;32110;45.724;21.276;2023-06-14T07:11:41;4.57;;;2.80;;
46407;SDS011;32110;45.724;21.276;2023-06-14T07:14:07;5.32;;;2.85;;
46407;SDS011;32110;45.724;21.276;2023-06-14T07:16:32;7.57;;;2.87;;
46407;SDS011;32110;45.724;21.276;2023-06-14T07:18:58;6.25;;;3.53;;
46407;SDS011;32110;45.724;21.276;2023-06-14T07:21:24;5.10;;;2.42;;
46407;SDS011;32110;45.724;21.276;2023-06-14T07:23:51;4.88;;;2.65;;
46407;SDS011;32110;45.724;21.276;2023-06-14T07:26:17;5.82;;;2.90;;
46407;SDS011;32110;45.724;21.276;2023-06-14T07:28:42;5.93;;;3.00;;
46407;SDS011;32110;45.724;21.276;2023-06-14T07:31:10;4.32;;;2.55;;
46407;SDS011;32110;45.724;21.276;2023-06-14T07:33:35;3.20;;;2.38;;
46407;SDS011;32110;45.724;21.276;2023-06-14T07:36:01;3.47;;;2.33;;
46407;SDS011;32110;45.724;21.276;2023-06-14T07:38:26;9.35;;;2.95;;
46407;SDS011;32110;45.724;21.276;2023-06-14T07:40:51;6.43;;;2.33;;
46407;SDS011;32110;45.724;21.276;2023-06-14T07:43:17;4.27;;;2.50;;
46407;SDS011;32110;45.724;21.276;2023-06-14T07:45:42;3.77;;;1.87;;
46407;SDS011;32110;45.724;21.276;2023-06-14T07:48:07;3.00;;;2.10;;
46407;SDS011;32110;45.724;21.276;2023-06-14T07:50:32;2.83;;;1.83;;
46407;SDS011;32110;45.724;21.276;2023-06-14T07:52:58;4.45;;;1.77;;
46407;SDS011;32110;45.724;21.276;2023-06-14T07:55:23;2.42;;;1.80;;
46407;SDS011;32110;45.724;21.276;2023-06-14T07:57:50;4.88;;;1.75;;
46407;SDS011;32110;45.724;21.276;2023-06-14T08:00:15;5.18;;;2.10;;
46407;SDS011;32110;45.724;21.276;2023-06-14T08:02:43;4.60;;;1.90;;
46407;SDS011;32110;45.724;21.276;2023-06-14T08:05:12;2.35;;;1.80;;
46407;SDS011;32110;45.724;21.276;2023-06-14T08:07:38;2.53;;;2.28;;
46407;SDS011;32110;45.724;21.276;2023-06-14T08:10:07;3.50;;;2.15;;
46407;SDS011;32110;45.724;21.276;2023-06-14T08:12:33;3.20;;;1.90;;
46407;SDS011;32110;45.724;21.276;2023-06-14T08:14:59;3.15;;;2.05;;
46407;SDS011;32110;45.724;21.276;2023-06-14T08:17:25;3.95;;;2.17;;
46407;SDS011;32110;45.724;21.276;2023-06-14T08:19:50;2.85;;;2.03;;
46407;SDS011;32110;45.724;21.276;2023-06-14T08:22:16;6.32;;;2.88;;
46407;SDS011;32110;45.724;21.276;2023-06-14T08:24:43;2.60;;;1.95;;
46407;SDS011;32110;45.724;21.276;2023-06-14T08:27:09;3.13;;;1.95;;
46407;SDS011;32110;45.724;21.276;2023-06-14T08:29:35;4.68;;;2.45;;
46407;SDS011;32110;45.724;21.276;2023-06-14T08:32:00;3.00;;;2.00;;
46407;SDS011;32110;45.724;21.276;2023-06-14T08:34:26;3.33;;;2.08;;
46407;SDS011;32110;45.724;21.276;2023-06-14T08:36:52;2.58;;;2.10;;
46407;SDS011;32110;45.724;21.276;2023-06-14T08:39:17;3.90;;;2.40;;
46407;SDS011;32110;45.724;21.276;2023-06-14T08:41:45;6.13;;;2.25;;
46407;SDS011;32110;45.724;21.276;2023-06-14T08:44:12;10.50;;;3.05;;
46407;SDS011;32110;45.724;21.276;2023-06-14T08:46:37;4.22;;;2.40;;
46407;SDS011;32110;45.724;21.276;2023-06-14T08:49:04;4.28;;;2.47;;
46407;SDS011;32110;45.724;21.276;2023-06-14T08:51:32;4.75;;;2.03;;
46407;SDS011;32110;45.724;21.276;2023-06-14T08:56:28;9.15;;;2.50;;
46407;SDS011;32110;45.724;21.276;2023-06-14T08:58:56;3.35;;;2.25;;
46407;SDS011;32110;45.724;21.276;2023-06-14T09:01:26;3.45;;;2.03;;
46407;SDS011;32110;45.724;21.276;2023-06-14T09:03:51;3.10;;;2.08;;
46407;SDS011;32110;45.724;21.276;2023-06-14T09:06:20;4.38;;;2.03;;
46407;SDS011;32110;45.724;21.276;2023-06-14T09:08:48;3.33;;;2.00;;
46407;SDS011;32110;45.724;21.276;2023-06-14T09:11:14;3.92;;;2.10;;
46407;SDS011;32110;45.724;21.276;2023-06-14T09:13:43;3.97;;;2.40;;
46407;SDS011;32110;45.724;21.276;2023-06-14T09:16:09;2.90;;;2.00;;
46407;SDS011;32110;45.724;21.276;2023-06-14T09:18:53;4.75;;;2.13;;
46407;SDS011;32110;45.724;21.276;2023-06-14T09:21:19;4.65;;;2.33;;
46407;SDS011;32110;45.724;21.276;2023-06-14T09:23:46;3.85;;;2.20;;
46407;SDS011;32110;45.724;21.276;2023-06-14T09:26:13;5.43;;;2.13;;
46407;SDS011;32110;45.724;21.276;2023-06-14T09:31:18;3.63;;;2.10;;
46407;SDS011;32110;45.724;21.276;2023-06-14T09:33:45;3.22;;;2.10;;
46407;SDS011;32110;45.724;21.276;2023-06-14T09:39:06;3.08;;;2.00;;
46407;SDS011;32110;45.724;21.276;2023-06-14T09:43:59;4.15;;;2.55;;
46407;SDS011;32110;45.724;21.276;2023-06-14T09:46:27;2.80;;;2.35;;
46407;SDS011;32110;45.724;21.276;2023-06-14T09:48:54;3.15;;;1.70;;
46407;SDS011;32110;45.724;21.276;2023-06-14T09:51:20;2.55;;;1.92;;
46407;SDS011;32110;45.724;21.276;2023-06-14T09:53:48;6.35;;;1.98;;
46407;SDS011;32110;45.724;21.276;2023-06-14T09:56:16;2.97;;;2.30;;
46407;SDS011;32110;45.724;21.276;2023-06-14T09:58:55;3.45;;;2.00;;
46407;SDS011;32110;45.724;21.276;2023-06-14T10:01:23;4.85;;;2.50;;
46407;SDS011;32110;45.724;21.276;2023-06-14T10:03:55;4.00;;;2.00;;
46407;SDS011;32110;45.724;21.276;2023-06-14T10:06:30;3.72;;;2.00;;
46407;SDS011;32110;45.724;21.276;2023-06-14T10:08:57;4.60;;;2.22;;
46407;SDS011;32110;45.724;21.276;2023-06-14T10:11:28;5.38;;;2.38;;
46407;SDS011;32110;45.724;21.276;2023-06-14T10:13:57;5.93;;;2.17;;
46407;SDS011;32110;45.724;21.276;2023-06-14T10:16:34;3.97;;;2.50;;
46407;SDS011;32110;45.724;21.276;2023-06-14T10:19:06;2.72;;;2.08;;
46407;SDS011;32110;45.724;21.276;2023-06-14T10:23:59;4.25;;;2.60;;
46407;SDS011;32110;45.724;21.276;2023-06-14T10:26:30;3.72;;;2.00;;
46407;SDS011;32110;45.724;21.276;2023-06-14T10:31:43;5.95;;;2.30;;
46407;SDS011;32110;45.724;21.276;2023-06-14T10:34:10;2.53;;;1.95;;
46407;SDS011;32110;45.724;21.276;2023-06-14T10:36:37;4.25;;;2.30;;
46407;SDS011;32110;45.724;21.276;2023-06-14T10:39:06;3.22;;;1.98;;
46407;SDS011;32110;45.724;21.276;2023-06-14T10:41:37;3.08;;;2.20;;
46407;SDS011;32110;45.724;21.276;2023-06-14T10:46:38;3.83;;;2.30;;
46407;SDS011;32110;45.724;21.276;2023-06-14T10:49:16;4.63;;;2.10;;
46407;SDS011;32110;45.724;21.276;2023-06-14T10:51:45;3.80;;;2.45;;
46407;SDS011;32110;45.724;21.276;2023-06-14T10:54:24;2.97;;;2.25;;
46407;SDS011;32110;45.724;21.276;2023-06-14T10:56:53;4.60;;;2.15;;
46407;SDS011;32110;45.724;21.276;2023-06-14T10:59:20;3.67;;;2.25;;
46407;SDS011;32110;45.724;21.276;2023-06-14T11:04:39;2.80;;;2.03;;
46407;SDS011;32110;45.724;21.276;2023-06-14T11:13:00;4.15;;;1.98;;
46407;SDS011;32110;45.724;21.276;2023-06-14T11:15:32;3.35;;;2.30;;
46407;SDS011;32110;45.724;21.276;2023-06-14T11:18:01;2.50;;;2.08;;
46407;SDS011;32110;45.724;21.276;2023-06-14T11:20:32;3.50;;;2.00;;
46407;SDS011;32110;45.724;21.276;2023-06-14T11:22:59;3.35;;;2.03;;
46407;SDS011;32110;45.724;21.276;2023-06-14T11:25:24;3.45;;;2.20;;
46407;SDS011;32110;45.724;21.276;2023-06-14T11:27:52;3.90;;;1.83;;
46407;SDS011;32110;45.724;21.276;2023-06-14T11:30:18;7.90;;;2.50;;
46407;SDS011;32110;45.724;21.276;2023-06-14T11:32:47;7.03;;;2.25;;
46407;SDS011;32110;45.724;21.276;2023-06-14T11:35:12;6.47;;;2.35;;
46407;SDS011;32110;45.724;21.276;2023-06-14T11:37:38;3.60;;;2.30;;
46407;SDS011;32110;45.724;21.276;2023-06-14T11:40:06;2.40;;;2.00;;
46407;SDS011;32110;45.724;21.276;2023-06-14T11:42:44;4.03;;;2.53;;
46407;SDS011;32110;45.724;21.276;2023-06-14T11:45:10;4.80;;;2.40;;
46407;SDS011;32110;45.724;21.276;2023-06-14T11:47:37;4.70;;;2.30;;
46407;SDS011;32110;45.724;21.276;2023-06-14T11:50:04;2.60;;;2.30;;
46407;SDS011;32110;45.724;21.276;2023-06-14T11:52:30;5.15;;;2.13;;
46407;SDS011;32110;45.724;21.276;2023-06-14T11:54:56;6.03;;;2.20;;
46407;SDS011;32110;45.724;21.276;2023-06-14T11:57:22;5.15;;;2.30;;
46407;SDS011;32110;45.724;21.276;2023-06-14T11:59:48;5.80;;;2.67;;
46407;SDS011;32110;45.724;21.276;2023-06-14T12:02:14;6.93;;;2.80;;
46407;SDS011;32110;45.724;21.276;2023-06-14T12:04:40;3.65;;;2.35;;
46407;SDS011;32110;45.724;21.276;2023-06-14T12:07:13;3.72;;;2.47;;
46407;SDS011;32110;45.724;21.276;2023-06-14T12:10:04;3.72;;;2.20;;
46407;SDS011;32110;45.724;21.276;2023-06-14T12:12:31;5.97;;;2.38;;
46407;SDS011;32110;45.724;21.276;2023-06-14T12:15:02;3.72;;;2.50;;
46407;SDS011;32110;45.724;21.276;2023-06-14T12:17:31;3.80;;;2.30;;
46407;SDS011;32110;45.724;21.276;2023-06-14T12:19:57;4.60;;;2.35;;
46407;SDS011;32110;45.724;21.276;2023-06-14T12:22:23;6.63;;;2.38;;
46407;SDS011;32110;45.724;21.276;2023-06-14T12:24:48;3.00;;;2.53;;
46407;SDS011;32110;45.724;21.276;2023-06-14T12:27:13;3.25;;;2.35;;
46407;SDS011;32110;45.724;21.276;2023-06-14T12:29:41;3.63;;;2.13;;
46407;SDS011;32110;45.724;21.276;2023-06-14T12:32:10;4.28;;;2.33;;
46407;SDS011;32110;45.724;21.276;2023-06-14T12:34:36;4.97;;;2.30;;
46407;SDS011;32110;45.724;21.276;2023-06-14T12:37:01;3.90;;;2.40;;
46407;SDS011;32110;45.724;21.276;2023-06-14T12:39:29;7.85;;;2.47;;
46407;SDS011;32110;45.724;21.276;2023-06-14T12:41:56;8.93;;;2.70;;
46407;SDS011;32110;45.724;21.276;2023-06-14T12:44:22;8.10;;;2.90;;
46407;SDS011;32110;45.724;21.276;2023-06-14T12:46:48;4.60;;;2.10;;
46407;SDS011;32110;45.724;21.276;2023-06-14T12:49:13;4.97;;;2.70;;
46407;SDS011;32110;45.724;21.276;2023-06-14T12:51:39;5.63;;;2.70;;
46407;SDS011;32110;45.724;21.276;2023-06-14T12:54:05;3.50;;;2.20;;
46407;SDS011;32110;45.724;21.276;2023-06-14T12:56:31;4.90;;;2.40;;
46407;SDS011;32110;45.724;21.276;2023-06-14T12:58:56;4.78;;;2.60;;
46407;SDS011;32110;45.724;21.276;2023-06-14T13:01:22;4.32;;;2.20;;
46407;SDS011;32110;45.724;21.276;2023-06-14T13:03:48;7.85;;;2.97;;
46407;SDS011;32110;45.724;21.276;2023-06-14T13:06:14;4.13;;;2.50;;
46407;SDS011;32110;45.724;21.276;2023-06-14T13:08:40;5.78;;;2.25;;
46407;SDS011;32110;45.724;21.276;2023-06-14T13:11:05;3.33;;;2.20;;
46407;SDS011;32110;45.724;21.276;2023-06-14T13:13:31;4.60;;;2.30;;
46407;SDS011;32110;45.724;21.276;2023-06-14T13:15:56;6.75;;;2.45;;
46407;SDS011;32110;45.724;21.276;2023-06-14T13:18:21;4.03;;;2.53;;
46407;SDS011;32110;45.724;21.276;2023-06-14T13:20:47;3.55;;;2.20;;
46407;SDS011;32110;45.724;21.276;2023-06-14T13:23:12;2.65;;;2.20;;
46407;SDS011;32110;45.724;21.276;2023-06-14T13:25:38;2.75;;;2.25;;
46407;SDS011;32110;45.724;21.276;2023-06-14T13:28:04;4.57;;;2.25;;
46407;SDS011;32110;45.724;21.276;2023-06-14T13:30:31;4.68;;;2.30;;
46407;SDS011;32110;45.724;21.276;2023-06-14T13:32:57;5.85;;;2.10;;
46407;SDS011;32110;45.724;21.276;2023-06-14T13:35:23;3.97;;;2.35;;
46407;SDS011;32110;45.724;21.276;2023-06-14T13:37:49;2.85;;;2.30;;
46407;SDS011;32110;45.724;21.276;2023-06-14T13:40:15;4.82;;;2.20;;
46407;SDS011;32110;45.724;21.276;2023-06-14T13:42:41;2.70;;;2.40;;
46407;SDS011;32110;45.724;21.276;2023-06-14T13:45:07;4.40;;;2.40;;
46407;SDS011;32110;45.724;21.276;2023-06-14T13:47:33;3.63;;;2.30;;
46407;SDS011;32110;45.724;21.276;2023-06-14T13:49:58;6.07;;;2.42;;
46407;SDS011;32110;45.724;21.276;2023-06-14T13:52:24;4.65;;;2.33;;
46407;SDS011;32110;45.724;21.276;2023-06-14T13:54:50;2.70;;;2.35;;
46407;SDS011;32110;45.724;21.276;2023-06-14T13:57:17;4.32;;;2.15;;
46407;SDS011;32110;45.724;21.276;2023-06-14T13:59:43;3.90;;;2.38;;
46407;SDS011;32110;45.724;21.276;2023-06-14T14:02:10;5.35;;;2.50;;
46407;SDS011;32110;45.724;21.276;2023-06-14T14:04:37;5.05;;;2.42;;
46407;SDS011;32110;45.724;21.276;2023-06-14T14:07:03;3.05;;;2.22;;
46407;SDS011;32110;45.724;21.276;2023-06-14T14:09:30;2.70;;;2.20;;
46407;SDS011;32110;45.724;21.276;2023-06-14T14:11:56;3.63;;;2.45;;
46407;SDS011;32110;45.724;21.276;2023-06-14T14:14:22;5.97;;;2.75;;
46407;SDS011;32110;45.724;21.276;2023-06-14T14:16:48;4.63;;;2.38;;
46407;SDS011;32110;45.724;21.276;2023-06-14T14:19:14;4.80;;;2.38;;
46407;SDS011;32110;45.724;21.276;2023-06-14T14:21:39;4.60;;;2.60;;
46407;SDS011;32110;45.724;21.276;2023-06-14T14:24:05;4.85;;;2.47;;
46407;SDS011;32110;45.724;21.276;2023-06-14T14:26:30;3.92;;;2.38;;
46407;SDS011;32110;45.724;21.276;2023-06-14T14:28:56;3.45;;;2.38;;
46407;SDS011;32110;45.724;21.276;2023-06-14T14:31:21;3.35;;;2.17;;
46407;SDS011;32110;45.724;21.276;2023-06-14T14:33:47;4.32;;;2.22;;
46407;SDS011;32110;45.724;21.276;2023-06-14T14:36:12;2.78;;;2.22;;
46407;SDS011;32110;45.724;21.276;2023-06-14T14:38:38;3.33;;;2.35;;
46407;SDS011;32110;45.724;21.276;2023-06-14T14:41:04;3.85;;;2.72;;
46407;SDS011;32110;45.724;21.276;2023-06-14T14:43:30;3.05;;;2.20;;
46407;SDS011;32110;45.724;21.276;2023-06-14T14:45:56;3.03;;;2.35;;
46407;SDS011;32110;45.724;21.276;2023-06-14T14:48:22;4.97;;;2.70;;
46407;SDS011;32110;45.724;21.276;2023-06-14T14:50:47;3.75;;;2.35;;
46407;SDS011;32110;45.724;21.276;2023-06-14T14:53:13;4.25;;;2.65;;
46407;SDS011;32110;45.724;21.276;2023-06-14T14:55:41;3.13;;;2.33;;
46407;SDS011;32110;45.724;21.276;2023-06-14T14:58:07;3.90;;;2.65;;
46407;SDS011;32110;45.724;21.276;2023-06-14T15:00:33;4.15;;;2.28;;
46407;SDS011;32110;45.724;21.276;2023-06-14T15:02:59;5.70;;;2.33;;
46407;SDS011;32110;45.724;21.276;2023-06-14T15:05:24;5.05;;;2.50;;